Wenona, Maryland
Current Conditions -  °F | °C
As of 8:12 PM on Monday 26 Jan 2015 (Local Time) from KTGI Reporting Station
Overcast Overcast  
Wind Chill: 24°   Ceiling: 700
Heat Index: 36°   Visibility: 10mi
Dew Point: 34°   Wind: 23mph
Humidity: 93%   Direction: 360°N
Pressure: 29.6"   Gusts: 31mph
Location:  38.14°N, 75.95°W
Report Text: KTGI 270112Z AUTO 36020G27KT 10SM OVC007 02/01 A2960 RMK AO1
Loading
Personal Weather Stations






























Interactive Weather Map New forecast layout! Learn more

10-Day Weather Forecast

Advertisements
Track Severe Weather on mobile